Kittanning, Pennsylvania
Current Conditions -  °F | °C
As of 3:55 AM on Saturday 29 Nov 2014 (Local Time) from KBTP Reporting Station
Overcast Overcast  
Wind Chill: 19°   Ceiling: 6500
Heat Index: 27°   Visibility: 10mi
Dew Point: 19°   Wind: 7mph
Humidity: 74%   Direction: 120°ESE
Pressure: 30.15"   Gusts: NA
Location:  40.81°N, 79.52°W
Report Text: KBTP 290855Z AUTO 12006KT 10SM OVC065 M03/M07 A3015 RMK AO1 57007
Loading
Personal Weather Stations






























Interactive Weather Map New forecast layout! Learn more

10-Day Weather Forecast

Advertisements
Track Severe Weather on mobile